createdAt,value
2023-03-02T00:01:48.443Z,6.00
2023-03-02T00:04:38.807Z,6.00
2023-03-02T00:07:08.749Z,6.00
2023-03-02T00:09:36.184Z,5.90
2023-03-02T00:12:03.432Z,5.90
2023-03-02T00:14:30.556Z,6.00
2023-03-02T00:16:57.738Z,6.00
2023-03-02T00:19:24.662Z,6.00
2023-03-02T00:21:51.991Z,6.00
2023-03-02T00:24:18.944Z,6.00
2023-03-02T00:26:45.896Z,6.00
2023-03-02T00:29:13.282Z,6.00
2023-03-02T00:31:40.207Z,6.00
2023-03-02T00:34:07.243Z,6.00
2023-03-02T00:36:34.326Z,6.00
2023-03-02T00:39:01.227Z,6.00
2023-03-02T00:41:28.423Z,6.00
2023-03-02T00:43:55.366Z,6.00
2023-03-02T00:46:23.154Z,6.00
2023-03-02T00:48:51.587Z,6.00
2023-03-02T00:51:18.713Z,6.00
2023-03-02T00:53:45.778Z,6.00
2023-03-02T00:56:12.913Z,5.90
2023-03-02T00:58:45.412Z,6.00
2023-03-02T01:01:13.237Z,6.00
2023-03-02T01:03:44.788Z,5.90
2023-03-02T01:06:20.248Z,5.90
2023-03-02T01:08:47.240Z,5.90
2023-03-02T01:11:18.726Z,5.90
2023-03-02T01:13:46.089Z,5.90
2023-03-02T01:16:13.472Z,5.90
2023-03-02T01:18:40.439Z,5.90
2023-03-02T01:21:14.909Z,5.90
2023-03-02T01:23:42.139Z,5.90
2023-03-02T01:26:09.465Z,5.90
2023-03-02T01:28:36.669Z,5.90
2023-03-02T01:31:04.720Z,5.90
2023-03-02T01:33:32.122Z,5.90
2023-03-02T01:35:59.130Z,5.90
2023-03-02T01:38:26.216Z,5.90
2023-03-02T01:40:53.209Z,5.90
2023-03-02T01:43:20.238Z,5.90
2023-03-02T01:45:54.765Z,5.90
2023-03-02T01:49:07.580Z,5.90
2023-03-02T01:51:49.701Z,5.90
2023-03-02T01:54:22.890Z,6.00
2023-03-02T01:56:55.950Z,6.00
2023-03-02T01:59:23.716Z,6.00
2023-03-02T02:01:52.812Z,5.90
2023-03-02T02:04:21.276Z,6.00
2023-03-02T02:06:50.459Z,6.00
2023-03-02T02:09:19.632Z,6.00
2023-03-02T02:11:46.803Z,6.00
2023-03-02T02:14:14.125Z,6.00
2023-03-02T02:16:41.463Z,6.00
2023-03-02T02:19:27.215Z,6.00
2023-03-02T02:21:54.224Z,6.00
2023-03-02T02:24:22.506Z,6.00
2023-03-02T02:26:51.679Z,6.00
2023-03-02T02:29:24.958Z,6.00
2023-03-02T02:31:55.369Z,6.00
2023-03-02T02:34:22.814Z,6.00
2023-03-02T02:36:54.597Z,6.00
2023-03-02T02:39:24.320Z,6.00
2023-03-02T02:41:52.696Z,6.00
2023-03-02T02:44:20.130Z,6.00
2023-03-02T02:46:46.990Z,6.00
2023-03-02T02:49:21.556Z,6.00
2023-03-02T02:51:48.481Z,6.00
2023-03-02T02:54:17.632Z,6.00
2023-03-02T02:56:46.682Z,6.00
2023-03-02T02:59:19.657Z,6.00
2023-03-02T03:01:47.748Z,6.00
2023-03-02T03:04:18.158Z,6.00
2023-03-02T03:06:59.036Z,6.00
2023-03-02T03:09:27.802Z,6.00
2023-03-02T03:11:56.219Z,6.00
2023-03-02T03:14:27.159Z,6.00
2023-03-02T03:16:54.809Z,6.00
2023-03-02T03:19:32.470Z,6.00
2023-03-02T03:22:01.408Z,6.00
2023-03-02T03:24:34.123Z,6.00
2023-03-02T03:27:05.365Z,6.00
2023-03-02T03:29:35.102Z,6.00
2023-03-02T03:32:03.996Z,6.00
2023-03-02T03:34:32.065Z,5.90
2023-03-02T03:37:01.874Z,6.00
2023-03-02T03:39:32.922Z,6.00
2023-03-02T03:41:59.948Z,6.00
2023-03-02T03:44:27.118Z,6.00
2023-03-02T03:46:54.184Z,6.00
2023-03-02T03:49:21.206Z,6.00
2023-03-02T03:51:48.339Z,6.00
2023-03-02T03:54:15.360Z,6.00
2023-03-02T03:56:46.090Z,6.00
2023-03-02T03:59:15.909Z,6.00
2023-03-02T04:01:52.901Z,5.90
2023-03-02T04:04:24.907Z,6.00
2023-03-02T04:06:52.519Z,5.90
2023-03-02T04:09:20.278Z,5.90
2023-03-02T04:11:48.675Z,5.90
2023-03-02T04:14:17.144Z,5.90
2023-03-02T04:16:44.693Z,6.00
2023-03-02T04:19:12.548Z,5.90
2023-03-02T04:21:43.311Z,5.90
2023-03-02T04:24:11.808Z,5.90
2023-03-02T04:26:41.101Z,5.90
2023-03-02T04:29:09.135Z,5.90
2023-03-02T04:31:38.167Z,5.90
2023-03-02T04:34:05.720Z,5.90
2023-03-02T04:36:35.872Z,5.90
2023-03-02T04:39:05.444Z,5.90
2023-03-02T04:41:32.698Z,5.90
2023-03-02T04:43:59.633Z,5.90
2023-03-02T04:46:27.848Z,5.90
2023-03-02T04:48:55.337Z,5.90
2023-03-02T04:51:24.295Z,5.90
2023-03-02T04:53:52.234Z,5.90
2023-03-02T04:56:19.200Z,5.90
2023-03-02T04:58:46.187Z,5.90
2023-03-02T05:01:13.606Z,5.80
2023-03-02T05:03:40.538Z,5.90
2023-03-02T05:06:07.965Z,5.90
2023-03-02T05:08:35.057Z,5.90
2023-03-02T05:11:03.793Z,5.90
2023-03-02T05:13:30.693Z,5.90
2023-03-02T05:15:58.529Z,5.90
2023-03-02T05:18:25.854Z,5.90
2023-03-02T05:20:53.798Z,5.80
2023-03-02T05:23:25.240Z,5.90
2023-03-02T05:25:53.468Z,5.90
2023-03-02T05:28:21.077Z,5.90
2023-03-02T05:30:48.378Z,5.80
2023-03-02T05:33:15.837Z,5.90
2023-03-02T05:35:43.204Z,5.80
2023-03-02T05:38:10.506Z,5.80
2023-03-02T05:40:37.772Z,5.80
2023-03-02T05:43:04.873Z,5.80
2023-03-02T05:45:33.929Z,5.80
2023-03-02T05:48:01.106Z,5.80
2023-03-02T05:50:28.033Z,5.80
2023-03-02T05:52:54.923Z,5.80
2023-03-02T05:55:21.839Z,5.80
2023-03-02T05:57:51.624Z,5.80
2023-03-02T06:00:19.086Z,5.80
2023-03-02T06:02:46.316Z,5.80
2023-03-02T06:05:14.459Z,5.80
2023-03-02T06:07:41.555Z,5.80
2023-03-02T06:10:09.302Z,5.80
2023-03-02T06:12:36.595Z,5.80
2023-03-02T06:15:04.652Z,5.80
2023-03-02T06:17:31.558Z,5.80
2023-03-02T06:19:58.356Z,5.80
2023-03-02T06:22:25.378Z,5.80
2023-03-02T06:24:55.154Z,5.80
2023-03-02T06:27:22.081Z,5.80
2023-03-02T06:29:49.061Z,5.80
2023-03-02T06:32:16.144Z,5.80
2023-03-02T06:34:43.145Z,5.80
2023-03-02T06:37:10.559Z,5.80
2023-03-02T06:39:37.516Z,5.80
2023-03-02T06:42:04.454Z,5.80
2023-03-02T06:44:31.389Z,5.80
2023-03-02T06:46:58.224Z,5.80
2023-03-02T06:49:25.223Z,5.80
2023-03-02T06:51:52.130Z,5.80
2023-03-02T06:54:19.018Z,5.80
2023-03-02T06:56:45.846Z,5.80
2023-03-02T06:59:12.699Z,5.70
2023-03-02T07:01:39.607Z,5.70
2023-03-02T07:04:06.622Z,5.70
2023-03-02T07:06:33.536Z,5.70
2023-03-02T07:09:01.129Z,5.70
2023-03-02T07:11:27.980Z,5.70
2023-03-02T07:13:54.886Z,5.70
2023-03-02T07:16:21.800Z,5.70
2023-03-02T07:18:48.785Z,5.70
2023-03-02T07:21:15.666Z,5.70
2023-03-02T07:23:42.507Z,5.70
2023-03-02T07:26:09.509Z,5.70
2023-03-02T07:28:37.352Z,5.70
2023-03-02T07:31:04.374Z,5.70
2023-03-02T07:33:31.812Z,5.70
2023-03-02T07:35:58.841Z,5.70
2023-03-02T07:38:25.879Z,5.70
2023-03-02T07:40:53.022Z,5.70
2023-03-02T07:43:20.057Z,5.70
2023-03-02T07:45:46.927Z,5.70
2023-03-02T07:48:13.871Z,5.70
2023-03-02T07:50:40.786Z,5.70
2023-03-02T07:53:07.664Z,5.70
2023-03-02T07:55:34.588Z,5.70
2023-03-02T07:58:01.521Z,5.70
2023-03-02T08:00:28.506Z,5.70
2023-03-02T08:02:55.546Z,5.70
2023-03-02T08:05:22.521Z,5.70
2023-03-02T08:07:49.952Z,5.70
2023-03-02T08:10:16.823Z,5.80
2023-03-02T08:12:44.185Z,5.80
2023-03-02T08:15:11.373Z,5.80
2023-03-02T08:17:38.377Z,5.80
2023-03-02T08:20:05.784Z,5.90
2023-03-02T08:22:32.735Z,5.90
2023-03-02T08:24:59.579Z,5.90
2023-03-02T08:27:26.438Z,5.90
2023-03-02T08:29:54.384Z,5.90
2023-03-02T08:32:23.670Z,5.90
2023-03-02T08:34:51.891Z,5.90
2023-03-02T08:37:19.300Z,5.90
2023-03-02T08:39:46.242Z,5.90
2023-03-02T08:42:13.087Z,6.00
2023-03-02T08:44:39.986Z,6.00
2023-03-02T08:47:06.936Z,6.00
2023-03-02T08:49:33.787Z,6.00
2023-03-02T08:52:00.820Z,6.00
2023-03-02T08:54:27.704Z,6.00
2023-03-02T08:56:54.529Z,6.00
2023-03-02T08:59:22.119Z,6.00
2023-03-02T09:01:49.289Z,6.00
2023-03-02T09:04:17.387Z,6.00
2023-03-02T09:06:45.093Z,6.00
2023-03-02T09:09:13.077Z,6.10
2023-03-02T09:11:40.565Z,6.10
2023-03-02T09:14:07.569Z,6.10
2023-03-02T09:16:34.486Z,6.10
2023-03-02T09:19:01.337Z,6.10
2023-03-02T09:21:28.268Z,6.10
2023-03-02T09:23:58.187Z,6.10
2023-03-02T09:26:27.973Z,6.10
2023-03-02T09:28:55.570Z,6.10
2023-03-02T09:31:22.658Z,6.00
2023-03-02T09:33:49.661Z,6.00
2023-03-02T09:36:21.795Z,6.00
2023-03-02T09:38:50.159Z,6.00
2023-03-02T09:41:20.242Z,6.00
2023-03-02T09:44:00.155Z,6.00
2023-03-02T09:46:30.463Z,6.00
2023-03-02T09:49:05.148Z,6.00
2023-03-02T09:51:32.841Z,6.00
2023-03-02T09:54:10.665Z,6.00
2023-03-02T09:56:39.862Z,6.00
2023-03-02T09:59:09.118Z,6.00
2023-03-02T10:01:43.664Z,6.00
2023-03-02T10:04:18.999Z,6.00
2023-03-02T10:06:45.950Z,6.00
2023-03-02T10:09:12.908Z,6.10
2023-03-02T10:11:49.147Z,6.10
2023-03-02T10:14:36.688Z,6.10
2023-03-02T10:17:09.841Z,6.10
2023-03-02T10:19:44.573Z,6.10
2023-03-02T10:22:28.717Z,6.10
2023-03-02T10:25:02.190Z,6.10
2023-03-02T10:27:34.849Z,6.10
2023-03-02T10:30:11.041Z,6.10
2023-03-02T10:32:42.065Z,6.10
2023-03-02T10:35:16.260Z,6.20
2023-03-02T10:37:43.308Z,6.20
2023-03-02T10:40:30.632Z,6.20
2023-03-02T10:42:57.750Z,6.20
2023-03-02T10:45:28.101Z,6.20
2023-03-02T10:48:06.135Z,6.20
2023-03-02T10:50:33.684Z,6.20
2023-03-02T10:53:02.955Z,6.20
2023-03-02T10:55:32.731Z,6.20
2023-03-02T10:58:07.690Z,6.20
2023-03-02T11:00:34.998Z,6.30
2023-03-02T11:03:03.739Z,6.30
2023-03-02T11:05:30.607Z,6.30
2023-03-02T11:08:05.114Z,6.30
2023-03-02T11:10:34.368Z,6.40
2023-03-02T11:13:02.340Z,6.40
2023-03-02T11:15:32.178Z,6.40
2023-03-02T11:18:06.954Z,6.40
2023-03-02T11:20:39.738Z,6.40
2023-03-02T11:23:15.812Z,6.50
2023-03-02T11:25:49.890Z,6.50
2023-03-02T11:28:33.101Z,6.50
2023-03-02T11:31:05.537Z,6.50
2023-03-02T11:33:51.628Z,6.60
2023-03-02T11:36:20.684Z,6.60
2023-03-02T11:38:52.779Z,6.60
2023-03-02T11:41:29.763Z,6.60
2023-03-02T11:43:59.050Z,6.60
2023-03-02T11:46:27.770Z,6.60
2023-03-02T11:48:56.359Z,6.60
2023-03-02T11:51:49.952Z,6.70
2023-03-02T11:54:23.272Z,6.80
2023-03-02T11:56:50.315Z,6.90
2023-03-02T11:59:19.729Z,7.10
2023-03-02T12:01:48.639Z,7.40
2023-03-02T12:04:27.006Z,7.60
2023-03-02T12:06:54.133Z,7.80
2023-03-02T12:09:24.075Z,8.00
2023-03-02T12:11:55.298Z,8.10
2023-03-02T12:14:48.626Z,8.20
2023-03-02T12:17:20.387Z,8.20
2023-03-02T12:19:48.545Z,8.20
2023-03-02T12:22:26.134Z,8.20
2023-03-02T12:24:59.629Z,8.10
2023-03-02T12:27:27.339Z,8.10
2023-03-02T12:30:30.701Z,8.10
2023-03-02T12:33:00.730Z,8.00
2023-03-02T12:35:28.878Z,8.00
2023-03-02T12:37:57.678Z,8.00
2023-03-02T12:40:40.597Z,7.90
2023-03-02T12:43:14.330Z,7.90
2023-03-02T12:45:44.310Z,7.80
2023-03-02T12:48:24.008Z,7.80
2023-03-02T12:50:52.444Z,7.80
2023-03-02T12:53:19.912Z,7.70
2023-03-02T12:55:53.142Z,7.70
2023-03-02T12:58:22.631Z,7.70
2023-03-02T13:00:51.251Z,7.70
2023-03-02T13:03:18.782Z,7.70
2023-03-02T13:05:47.377Z,7.70
2023-03-02T13:08:18.789Z,7.70
2023-03-02T13:10:53.311Z,7.70
2023-03-02T13:13:22.072Z,7.70
2023-03-02T13:15:50.535Z,7.70
2023-03-02T13:18:17.612Z,7.60
2023-03-02T13:20:44.870Z,7.60
2023-03-02T13:23:13.320Z,7.60
2023-03-02T13:25:48.013Z,7.70
2023-03-02T13:28:28.793Z,7.70
2023-03-02T13:31:06.803Z,7.70
2023-03-02T13:33:35.644Z,7.70
2023-03-02T13:36:02.759Z,7.70
2023-03-02T13:38:32.620Z,7.70
2023-03-02T13:40:59.678Z,7.70
2023-03-02T13:43:26.610Z,7.70
2023-03-02T13:45:57.201Z,7.70
2023-03-02T13:48:24.423Z,7.70
2023-03-02T13:50:59.011Z,7.70
2023-03-02T13:53:27.621Z,7.70
2023-03-02T13:55:54.849Z,7.80
2023-03-02T13:58:22.784Z,7.80
2023-03-02T14:00:50.098Z,7.80
2023-03-02T14:03:24.782Z,7.80
2023-03-02T14:05:52.504Z,7.80
2023-03-02T14:08:19.755Z,7.90
2023-03-02T14:10:47.209Z,7.90
2023-03-02T14:13:16.186Z,7.90
2023-03-02T14:15:46.667Z,7.90
2023-03-02T14:18:28.892Z,7.90
2023-03-02T14:20:56.563Z,7.90
2023-03-02T14:23:24.865Z,7.80
2023-03-02T14:25:52.834Z,7.80
2023-03-02T14:28:25.085Z,7.80
2023-03-02T14:30:53.761Z,7.80
2023-03-02T14:33:21.544Z,7.80
2023-03-02T14:35:49.418Z,7.80
2023-03-02T14:38:16.444Z,7.80
2023-03-02T14:40:43.715Z,7.80
2023-03-02T14:43:10.684Z,7.80
2023-03-02T14:45:37.602Z,7.70
2023-03-02T14:48:04.489Z,7.70
2023-03-02T14:50:33.464Z,7.70
2023-03-02T14:53:00.327Z,7.80
2023-03-02T14:55:28.747Z,7.70
2023-03-02T14:57:57.394Z,7.70
2023-03-02T15:00:24.988Z,7.70
2023-03-02T15:02:52.001Z,7.70
2023-03-02T15:05:19.375Z,7.70
2023-03-02T15:07:46.357Z,7.70
2023-03-02T15:10:15.108Z,7.70
2023-03-02T15:12:41.970Z,7.70
2023-03-02T15:15:09.639Z,7.70
2023-03-02T15:17:36.601Z,7.70
2023-03-02T15:20:03.935Z,7.70
2023-03-02T15:22:30.831Z,7.70
2023-03-02T15:24:57.680Z,7.70
2023-03-02T15:27:24.874Z,7.70
2023-03-02T15:29:51.782Z,7.70
2023-03-02T15:32:18.892Z,7.70
2023-03-02T15:34:45.885Z,7.70
2023-03-02T15:37:12.964Z,7.60
2023-03-02T15:39:40.058Z,7.70
2023-03-02T15:42:07.217Z,7.60
2023-03-02T15:44:34.311Z,7.60
2023-03-02T15:47:01.835Z,7.60
2023-03-02T15:49:29.516Z,7.60
2023-03-02T15:51:57.698Z,7.50
2023-03-02T15:54:25.282Z,7.50
2023-03-02T15:56:53.382Z,7.60
2023-03-02T15:59:21.259Z,7.50
2023-03-02T16:01:48.180Z,7.50
2023-03-02T16:04:15.180Z,7.50
2023-03-02T16:06:42.553Z,7.50
2023-03-02T16:09:09.590Z,7.50
2023-03-02T16:11:37.144Z,7.50
2023-03-02T16:14:04.477Z,7.50
2023-03-02T16:16:31.454Z,7.40
2023-03-02T16:18:58.787Z,7.40
2023-03-02T16:21:26.869Z,7.40
2023-03-02T16:23:54.116Z,7.40
2023-03-02T16:26:21.711Z,7.40
2023-03-02T16:28:48.864Z,7.40
2023-03-02T16:31:18.770Z,7.40
2023-03-02T16:33:46.899Z,7.40
2023-03-02T16:36:14.816Z,7.40
2023-03-02T16:38:41.821Z,7.40
2023-03-02T16:41:19.045Z,7.40
2023-03-02T16:43:50.154Z,7.40
2023-03-02T16:46:17.468Z,7.40
2023-03-02T16:48:44.673Z,7.40
2023-03-02T16:51:11.719Z,7.30
2023-03-02T16:53:40.806Z,7.30
2023-03-02T16:56:08.394Z,7.30
2023-03-02T16:58:38.324Z,7.30
2023-03-02T17:01:06.504Z,7.20
2023-03-02T17:03:33.708Z,7.20
2023-03-02T17:06:01.579Z,7.20
2023-03-02T17:08:28.562Z,7.20
2023-03-02T17:10:55.430Z,7.20
2023-03-02T17:13:22.402Z,7.20
2023-03-02T17:15:49.377Z,7.20
2023-03-02T17:18:17.259Z,7.10
2023-03-02T17:20:44.110Z,7.10
2023-03-02T17:23:14.295Z,7.10
2023-03-02T17:25:41.238Z,7.10
2023-03-02T17:28:08.137Z,7.10
2023-03-02T17:30:35.050Z,7.10
2023-03-02T17:33:02.042Z,7.00
2023-03-02T17:35:28.926Z,7.00
2023-03-02T17:37:55.809Z,7.00
2023-03-02T17:40:22.790Z,7.00
2023-03-02T17:42:49.778Z,7.00
2023-03-02T17:45:20.878Z,7.00
2023-03-02T17:47:49.834Z,7.00
2023-03-02T17:50:18.921Z,7.00
2023-03-02T17:52:45.872Z,7.00
2023-03-02T17:55:13.799Z,6.90
2023-03-02T17:57:40.651Z,6.90
2023-03-02T18:00:09.684Z,6.90
2023-03-02T18:02:37.348Z,6.90
2023-03-02T18:05:04.450Z,6.80
2023-03-02T18:07:31.418Z,6.80
2023-03-02T18:09:58.354Z,6.80
2023-03-02T18:12:25.265Z,6.80
2023-03-02T18:14:52.184Z,6.80
2023-03-02T18:17:20.728Z,6.80
2023-03-02T18:19:48.105Z,6.80
2023-03-02T18:22:15.013Z,6.80
2023-03-02T18:24:42.001Z,6.80
2023-03-02T18:27:08.866Z,6.80
2023-03-02T18:29:35.978Z,6.80
2023-03-02T18:32:03.257Z,6.80
2023-03-02T18:34:30.198Z,6.80
2023-03-02T18:36:57.102Z,6.80
2023-03-02T18:39:24.034Z,6.70
2023-03-02T18:41:50.983Z,6.70
2023-03-02T18:44:18.842Z,6.70
2023-03-02T18:46:45.889Z,6.70
2023-03-02T18:49:12.821Z,6.70
2023-03-02T18:51:39.729Z,6.70
2023-03-02T18:54:07.584Z,6.70
2023-03-02T18:56:34.510Z,6.70
2023-03-02T18:59:02.011Z,6.60
2023-03-02T19:01:30.620Z,6.60
2023-03-02T19:03:57.720Z,6.70
2023-03-02T19:06:24.934Z,6.60
2023-03-02T19:08:52.080Z,6.60
2023-03-02T19:11:19.066Z,6.60
2023-03-02T19:13:46.291Z,6.60
2023-03-02T19:16:13.878Z,6.60
2023-03-02T19:18:40.848Z,6.60
2023-03-02T19:21:07.768Z,6.50
2023-03-02T19:23:34.816Z,6.50
2023-03-02T19:26:01.783Z,6.50
2023-03-02T19:28:28.807Z,6.50
2023-03-02T19:30:55.727Z,6.60
2023-03-02T19:33:24.851Z,6.60
2023-03-02T19:35:51.907Z,6.50
2023-03-02T19:38:19.304Z,6.60
2023-03-02T19:40:46.291Z,6.50
2023-03-02T19:43:13.188Z,6.50
2023-03-02T19:45:40.158Z,6.60
2023-03-02T19:48:07.293Z,6.50
2023-03-02T19:50:34.199Z,6.50
2023-03-02T19:53:01.105Z,6.50
2023-03-02T19:55:28.038Z,6.50
2023-03-02T19:58:01.027Z,6.50
2023-03-02T20:00:31.974Z,6.50
2023-03-02T20:02:59.116Z,6.50
2023-03-02T20:05:27.570Z,6.50
2023-03-02T20:07:54.607Z,6.50
2023-03-02T20:10:26.144Z,6.50
2023-03-02T20:12:53.179Z,6.50
2023-03-02T20:15:20.099Z,6.50
2023-03-02T20:17:47.185Z,6.50
2023-03-02T20:20:15.078Z,6.50
2023-03-02T20:22:42.135Z,6.50
2023-03-02T20:25:09.233Z,6.50
2023-03-02T20:27:36.193Z,6.50
2023-03-02T20:30:05.035Z,6.50
2023-03-02T20:32:32.082Z,6.50
2023-03-02T20:34:59.246Z,6.40
2023-03-02T20:37:26.464Z,6.40
2023-03-02T20:39:53.915Z,6.40
2023-03-02T20:42:21.243Z,6.40
2023-03-02T20:44:48.486Z,6.40
2023-03-02T20:47:16.124Z,6.40
2023-03-02T20:49:43.237Z,6.40
2023-03-02T20:52:11.031Z,6.40
2023-03-02T20:54:39.775Z,6.40
2023-03-02T20:57:08.664Z,6.40
2023-03-02T20:59:37.154Z,6.30
2023-03-02T21:02:04.668Z,6.30
2023-03-02T21:04:33.268Z,6.30
2023-03-02T21:07:00.532Z,6.30
2023-03-02T21:09:27.527Z,6.30
2023-03-02T21:11:54.537Z,6.30
2023-03-02T21:14:21.415Z,6.30
2023-03-02T21:16:48.367Z,6.30
2023-03-02T21:19:16.397Z,6.30
2023-03-02T21:21:43.491Z,6.30
2023-03-02T21:24:11.422Z,6.30
2023-03-02T21:26:38.909Z,6.30
2023-03-02T21:29:06.274Z,6.30
2023-03-02T21:31:33.426Z,6.30
2023-03-02T21:34:00.842Z,6.30
2023-03-02T21:36:28.055Z,6.30
2023-03-02T21:38:55.150Z,6.20
2023-03-02T21:41:22.163Z,6.20
2023-03-02T21:43:49.701Z,6.20
2023-03-02T21:46:18.970Z,6.20
2023-03-02T21:48:46.238Z,6.20
2023-03-02T21:51:13.691Z,6.20
2023-03-02T21:53:40.627Z,6.20
2023-03-02T21:56:07.701Z,6.20
2023-03-02T21:58:34.872Z,6.20
2023-03-02T22:01:01.882Z,6.20
2023-03-02T22:03:28.813Z,6.20
2023-03-02T22:05:55.809Z,6.20
2023-03-02T22:08:22.769Z,6.20
2023-03-02T22:10:50.906Z,6.20
2023-03-02T22:13:21.946Z,6.20
2023-03-02T22:15:49.556Z,6.20
2023-03-02T22:18:18.252Z,6.20
2023-03-02T22:20:46.749Z,6.20
2023-03-02T22:23:15.347Z,6.20
2023-03-02T22:25:43.695Z,6.20
2023-03-02T22:28:14.823Z,6.20
2023-03-02T22:30:41.723Z,6.20
2023-03-02T22:33:15.851Z,6.20
2023-03-02T22:35:42.932Z,6.20
2023-03-02T22:38:36.929Z,6.20
2023-03-02T22:41:06.379Z,6.20
2023-03-02T22:43:35.058Z,6.10
2023-03-02T22:46:05.024Z,6.10
2023-03-02T22:48:33.562Z,6.10
2023-03-02T22:51:09.660Z,6.10
2023-03-02T22:53:38.417Z,6.10
2023-03-02T22:56:21.219Z,6.10
2023-03-02T22:58:49.811Z,6.10
2023-03-02T23:01:21.647Z,6.10
2023-03-02T23:03:57.276Z,6.10
2023-03-02T23:06:27.253Z,6.10
2023-03-02T23:08:55.859Z,6.10
2023-03-02T23:11:23.197Z,6.10
2023-03-02T23:13:50.600Z,6.10
2023-03-02T23:16:18.853Z,6.10
2023-03-02T23:18:47.949Z,6.10
2023-03-02T23:21:16.735Z,6.00
2023-03-02T23:23:43.757Z,6.00
2023-03-02T23:26:10.722Z,6.00
2023-03-02T23:28:37.625Z,6.00
2023-03-02T23:31:04.560Z,6.00
2023-03-02T23:33:32.267Z,6.00
2023-03-02T23:35:59.153Z,6.00
2023-03-02T23:38:26.013Z,6.00
2023-03-02T23:40:53.729Z,6.00
2023-03-02T23:43:20.723Z,6.00
2023-03-02T23:45:47.643Z,6.00
2023-03-02T23:48:14.731Z,6.00
2023-03-02T23:50:41.670Z,6.00
2023-03-02T23:53:08.745Z,5.90
2023-03-02T23:55:36.186Z,5.90
2023-03-02T23:58:03.013Z,5.90
